createdAt,value
2022-08-04T00:00:08.449Z,23.00
2022-08-04T00:02:49.525Z,23.00
2022-08-04T00:05:28.547Z,22.90
2022-08-04T00:08:06.226Z,22.90
2022-08-04T00:10:35.197Z,22.90
2022-08-04T00:13:05.780Z,22.80
2022-08-04T00:15:35.009Z,22.80
2022-08-04T00:18:06.137Z,22.80
2022-08-04T00:20:35.760Z,22.80
2022-08-04T00:23:05.775Z,22.80
2022-08-04T00:25:34.653Z,22.70
2022-08-04T00:28:02.873Z,22.70
2022-08-04T00:30:31.274Z,22.70
2022-08-04T00:32:59.753Z,22.70
2022-08-04T00:35:30.216Z,22.60
2022-08-04T00:37:59.246Z,22.60
2022-08-04T00:40:36.992Z,22.60
2022-08-04T00:43:13.507Z,22.60
2022-08-04T00:46:16.037Z,22.60
2022-08-04T00:49:00.265Z,22.60
2022-08-04T00:51:44.544Z,22.50
2022-08-04T00:54:25.918Z,22.50
2022-08-04T00:57:33.373Z,22.50
2022-08-04T01:00:08.372Z,22.60
2022-08-04T01:02:40.653Z,22.50
2022-08-04T01:05:21.341Z,22.50
2022-08-04T01:08:40.739Z,22.40
2022-08-04T01:11:20.090Z,22.40
2022-08-04T01:14:17.945Z,22.40
2022-08-04T01:16:50.573Z,22.30
2022-08-04T01:19:53.816Z,22.30
2022-08-04T01:22:51.362Z,22.20
2022-08-04T01:25:51.262Z,22.20
2022-08-04T01:28:30.986Z,22.20
2022-08-04T01:31:07.634Z,22.20
2022-08-04T01:34:03.210Z,22.10
2022-08-04T01:36:35.546Z,22.20
2022-08-04T01:39:25.885Z,22.10
2022-08-04T01:41:58.433Z,22.10
2022-08-04T01:44:29.507Z,22.10
2022-08-04T01:47:01.350Z,22.10
2022-08-04T01:49:40.045Z,22.10
2022-08-04T01:52:11.071Z,22.10
2022-08-04T01:54:43.043Z,22.10
2022-08-04T01:57:36.895Z,22.10
2022-08-04T02:00:01.700Z,22.10
2022-08-04T02:02:34.602Z,22.00
2022-08-04T02:05:02.724Z,22.00
2022-08-04T02:07:47.646Z,22.00
2022-08-04T02:10:28.109Z,21.90
2022-08-04T02:13:09.147Z,21.90
2022-08-04T02:15:43.969Z,21.80
2022-08-04T02:18:21.202Z,21.80
2022-08-04T02:20:54.692Z,21.90
2022-08-04T02:23:35.760Z,21.80
2022-08-04T02:26:07.071Z,21.80
2022-08-04T02:28:48.423Z,21.80
2022-08-04T02:31:28.777Z,21.80
2022-08-04T02:34:07.477Z,21.70
2022-08-04T02:36:38.719Z,21.70
2022-08-04T02:39:08.723Z,21.60
2022-08-04T02:41:38.418Z,21.50
2022-08-04T02:44:08.944Z,21.50
2022-08-04T02:46:39.516Z,21.50
2022-08-04T02:49:10.640Z,21.40
2022-08-04T02:51:42.355Z,21.40
2022-08-04T02:54:11.027Z,21.40
2022-08-04T02:56:40.574Z,21.30
2022-08-04T02:59:11.756Z,21.30
2022-08-04T03:01:56.535Z,21.30
2022-08-04T03:04:44.124Z,21.20
2022-08-04T03:07:37.787Z,21.20
2022-08-04T03:10:31.158Z,21.20
2022-08-04T03:13:31.569Z,21.20
2022-08-04T03:16:16.054Z,21.10
2022-08-04T03:19:20.957Z,21.10
2022-08-04T03:22:29.788Z,21.10
2022-08-04T03:25:23.521Z,21.00
2022-08-04T03:28:33.962Z,21.00
2022-08-04T03:31:24.530Z,21.10
2022-08-04T03:34:07.895Z,21.10
2022-08-04T03:36:56.051Z,21.10
2022-08-04T03:40:11.043Z,21.10
2022-08-04T03:43:58.405Z,21.20
2022-08-04T03:46:53.664Z,21.10
2022-08-04T03:50:04.600Z,21.20
2022-08-04T03:53:11.556Z,21.10
2022-08-04T03:55:55.733Z,21.10
2022-08-04T03:58:54.693Z,21.00
2022-08-04T04:02:02.905Z,21.00
2022-08-04T04:04:59.230Z,21.00
2022-08-04T04:08:16.458Z,20.90
2022-08-04T04:11:55.391Z,20.90
2022-08-04T04:14:46.381Z,20.90
2022-08-04T04:17:40.920Z,20.90
2022-08-04T04:20:26.793Z,20.90
2022-08-04T04:23:23.341Z,21.00
2022-08-04T04:26:04.812Z,21.00
2022-08-04T04:29:10.863Z,21.00
2022-08-04T04:31:53.987Z,21.10
2022-08-04T04:34:42.884Z,21.10
2022-08-04T04:37:23.907Z,21.10
2022-08-04T04:40:08.512Z,21.10
2022-08-04T04:42:47.666Z,21.10
2022-08-04T04:45:26.865Z,21.20
2022-08-04T04:48:08.662Z,21.30
2022-08-04T04:50:54.210Z,21.30
2022-08-04T04:53:28.950Z,21.40
2022-08-04T04:56:04.384Z,21.50
2022-08-04T04:58:35.100Z,21.50
2022-08-04T05:01:37.684Z,21.60
2022-08-04T05:04:37.802Z,21.70
2022-08-04T05:07:35.522Z,21.80
2022-08-04T05:10:16.230Z,21.90
2022-08-04T05:14:32.147Z,21.90
2022-08-04T05:15:49.624Z,22.00
2022-08-04T05:18:23.449Z,22.10
2022-08-04T05:20:56.970Z,22.30
2022-08-04T05:23:29.857Z,22.40
2022-08-04T05:26:02.254Z,22.50
2022-08-04T05:28:35.415Z,22.60
2022-08-04T05:31:07.270Z,22.70
2022-08-04T05:33:42.748Z,22.80
2022-08-04T05:36:21.638Z,22.90
2022-08-04T05:38:59.810Z,22.90
2022-08-04T05:41:32.420Z,22.90
2022-08-04T05:44:15.782Z,23.00
2022-08-04T05:46:45.450Z,23.00
2022-08-04T05:49:24.291Z,23.00
2022-08-04T05:51:55.777Z,23.10
2022-08-04T05:54:25.876Z,23.30
2022-08-04T05:56:55.914Z,23.40
2022-08-04T05:59:25.811Z,23.60
2022-08-04T06:01:57.795Z,23.70
2022-08-04T06:04:33.961Z,23.90
2022-08-04T06:07:02.292Z,24.00
2022-08-04T06:09:31.814Z,24.10
2022-08-04T06:12:04.546Z,24.20
2022-08-04T06:14:39.164Z,24.30
2022-08-04T06:18:32.292Z,24.40
2022-08-04T06:20:19.985Z,24.50
2022-08-04T06:22:54.391Z,24.60
2022-08-04T06:25:27.227Z,24.70
2022-08-04T06:27:57.009Z,24.90
2022-08-04T06:30:27.169Z,25.10
2022-08-04T06:33:04.013Z,25.30
2022-08-04T06:35:35.126Z,25.40
2022-08-04T06:38:04.022Z,25.50
2022-08-04T06:40:34.400Z,25.80
2022-08-04T06:43:05.420Z,25.80
2022-08-04T06:45:36.602Z,26.00
2022-08-04T06:48:07.225Z,26.10
2022-08-04T06:51:25.896Z,26.40
2022-08-04T06:53:26.510Z,26.60
2022-08-04T06:55:57.227Z,26.90
2022-08-04T06:58:26.442Z,27.10
2022-08-04T07:01:01.620Z,27.40
2022-08-04T07:03:30.495Z,27.70
2022-08-04T07:06:06.317Z,28.60
2022-08-04T07:08:42.991Z,30.20
2022-08-04T07:11:12.004Z,31.80
2022-08-04T07:13:44.992Z,33.50
2022-08-04T07:16:16.329Z,35.00
2022-08-04T07:18:44.592Z,37.00
2022-08-04T07:52:13.676Z,38.30
2022-08-04T07:57:19.197Z,43.60
2022-08-04T17:45:49.228Z,44.00
2022-08-04T17:48:00.577Z,34.40
2022-08-04T17:50:34.775Z,34.10
2022-08-04T17:53:12.238Z,33.90
2022-08-04T17:55:42.422Z,33.80
2022-08-04T18:01:24.295Z,33.70
2022-08-04T18:03:53.742Z,33.60
2022-08-04T18:06:25.680Z,33.60
2022-08-04T18:08:58.808Z,33.50
2022-08-04T18:11:29.672Z,33.40
2022-08-04T18:14:10.632Z,33.30
2022-08-04T18:16:44.912Z,33.30
2022-08-04T18:19:15.108Z,33.20
2022-08-04T18:21:45.688Z,33.10
2022-08-04T18:24:35.829Z,32.90
2022-08-04T18:27:17.438Z,32.80
2022-08-04T18:30:14.487Z,32.70
2022-08-04T18:32:34.243Z,32.50
2022-08-04T18:35:05.777Z,32.40
2022-08-04T18:38:06.624Z,32.40
2022-08-04T18:40:34.288Z,32.30
2022-08-04T18:43:07.412Z,32.20
2022-08-04T18:48:36.162Z,32.70
2022-08-04T18:51:22.382Z,32.70
2022-08-04T18:53:58.550Z,32.70
2022-08-04T18:56:31.872Z,32.70
2022-08-04T18:59:01.907Z,32.60
2022-08-04T19:02:13.636Z,32.50
2022-08-04T19:04:33.119Z,32.40
2022-08-04T19:07:23.282Z,32.20
2022-08-04T19:09:54.119Z,32.00
2022-08-04T19:12:29.513Z,31.90
2022-08-04T19:15:10.316Z,31.90
2022-08-04T19:17:53.244Z,31.80
2022-08-04T19:20:26.739Z,31.70
2022-08-04T19:24:10.994Z,31.60
2022-08-04T19:26:02.451Z,31.60
2022-08-04T19:28:35.943Z,31.50
2022-08-04T19:31:05.841Z,31.50
2022-08-04T19:33:58.710Z,31.40
2022-08-04T19:36:27.964Z,31.30
2022-08-04T19:38:58.139Z,31.20
2022-08-04T19:41:26.981Z,31.10
2022-08-04T19:43:56.987Z,30.90
2022-08-04T19:46:27.859Z,30.90
2022-08-04T19:48:59.522Z,30.70
2022-08-04T19:51:29.755Z,30.60
2022-08-04T19:54:02.947Z,30.50
2022-08-04T19:56:40.381Z,30.40
2022-08-04T19:59:10.971Z,30.40
2022-08-04T20:01:45.382Z,30.40
2022-08-04T20:04:14.671Z,30.40
2022-08-04T20:06:43.457Z,30.30
2022-08-04T20:09:25.309Z,30.30
2022-08-04T20:11:56.146Z,30.30
2022-08-04T20:14:32.795Z,30.40
2022-08-04T20:17:02.873Z,30.30
2022-08-04T20:19:30.916Z,30.20
2022-08-04T20:21:59.952Z,30.10
2022-08-04T20:24:38.055Z,30.10
2022-08-04T20:27:15.424Z,30.10
2022-08-04T20:29:49.422Z,30.20
2022-08-04T20:32:20.173Z,30.20
2022-08-04T20:34:51.436Z,30.20
2022-08-04T20:37:20.671Z,30.10
2022-08-04T20:42:36.858Z,30.00
2022-08-04T20:45:07.078Z,29.90
2022-08-04T20:47:45.889Z,29.90
2022-08-04T20:50:29.674Z,29.90
2022-08-04T20:52:58.916Z,29.80
2022-08-04T20:55:29.655Z,29.70
2022-08-04T20:58:03.128Z,29.70
2022-08-04T21:00:33.361Z,29.70
2022-08-04T21:03:02.630Z,29.70
2022-08-04T21:05:31.630Z,29.70
2022-08-04T21:08:00.034Z,29.60
2022-08-04T21:10:28.589Z,29.60
2022-08-04T21:12:56.740Z,29.50
2022-08-04T21:15:26.377Z,29.40
2022-08-04T21:18:16.728Z,29.40
2022-08-04T21:20:48.228Z,29.30
2022-08-04T21:23:17.020Z,29.30
2022-08-04T21:25:45.607Z,29.20
2022-08-04T21:28:20.081Z,29.20
2022-08-04T21:30:52.732Z,29.20
2022-08-04T21:36:13.266Z,29.10
2022-08-04T21:38:51.733Z,29.00
2022-08-04T21:41:25.054Z,29.00
2022-08-04T21:43:55.947Z,29.00
2022-08-04T21:46:23.980Z,28.90
2022-08-04T21:48:53.611Z,28.80
2022-08-04T21:51:59.151Z,28.70
2022-08-04T21:54:15.291Z,28.60
2022-08-04T21:56:51.248Z,28.60
2022-08-04T21:59:23.816Z,28.50
2022-08-04T22:02:00.443Z,28.50
2022-08-04T22:04:31.005Z,28.40
2022-08-04T22:07:02.867Z,28.40
2022-08-04T22:09:40.890Z,28.40
2022-08-04T22:12:12.068Z,28.20
2022-08-04T22:14:41.004Z,28.10
2022-08-04T22:17:13.536Z,28.00
2022-08-04T22:19:55.233Z,28.00
2022-08-04T22:22:29.210Z,27.90
2022-08-04T22:25:01.314Z,27.80
2022-08-04T22:27:55.104Z,27.80
2022-08-04T22:30:24.110Z,27.80
2022-08-04T22:32:52.366Z,27.80
2022-08-04T22:35:35.643Z,27.70
2022-08-04T22:38:24.395Z,27.70
2022-08-04T22:40:59.021Z,27.70
2022-08-04T22:43:33.184Z,27.60
2022-08-04T22:46:06.929Z,27.60
2022-08-04T22:48:35.835Z,27.60
2022-08-04T22:51:07.021Z,27.50
2022-08-04T22:53:36.311Z,27.50
2022-08-04T22:56:09.538Z,27.50
2022-08-04T22:58:40.139Z,27.50
2022-08-04T23:01:09.002Z,27.50
2022-08-04T23:03:38.305Z,27.40
2022-08-04T23:06:11.052Z,27.30
2022-08-04T23:08:46.367Z,27.30
2022-08-04T23:11:15.454Z,27.30
2022-08-04T23:13:43.991Z,27.30
2022-08-04T23:16:12.528Z,27.30
2022-08-04T23:18:42.374Z,27.20
2022-08-04T23:21:14.677Z,27.20
2022-08-04T23:23:55.706Z,27.20
2022-08-04T23:26:30.802Z,27.20
2022-08-04T23:28:58.994Z,27.20
2022-08-04T23:31:38.894Z,27.10
2022-08-04T23:34:12.233Z,27.10
2022-08-04T23:36:42.417Z,27.10
2022-08-04T23:39:10.856Z,27.10
2022-08-04T23:41:55.292Z,27.10
2022-08-04T23:44:26.745Z,27.10
2022-08-04T23:47:00.028Z,27.10
2022-08-04T23:49:43.995Z,27.10
2022-08-04T23:52:28.319Z,27.00
2022-08-04T23:54:59.481Z,27.00
2022-08-04T23:57:30.990Z,26.90
